createdAt,value
2019-03-31T00:02:23.667Z,94.70
2019-03-31T00:04:52.083Z,94.50
2019-03-31T00:07:20.600Z,94.20
2019-03-31T00:09:49.036Z,94.20
2019-03-31T00:12:17.472Z,94.00
2019-03-31T00:14:45.941Z,94.00
2019-03-31T00:17:14.417Z,93.80
2019-03-31T00:19:42.847Z,93.90
2019-03-31T00:22:11.285Z,93.90
2019-03-31T00:24:39.749Z,94.00
2019-03-31T00:27:08.184Z,94.10
2019-03-31T00:29:36.606Z,93.80
2019-03-31T00:32:05.203Z,93.90
2019-03-31T00:34:33.657Z,94.30
2019-03-31T00:37:21.436Z,94.20
2019-03-31T00:39:49.953Z,94.10
2019-03-31T00:42:18.382Z,93.80
2019-03-31T00:44:46.840Z,93.80
2019-03-31T00:47:15.275Z,93.40
2019-03-31T00:49:43.774Z,93.70
2019-03-31T00:52:12.278Z,93.90
2019-03-31T00:54:40.706Z,93.90
2019-03-31T00:57:09.150Z,93.60
2019-03-31T00:59:37.582Z,93.30
2019-03-31T01:02:07.886Z,93.40
2019-03-31T01:04:36.344Z,93.20
2019-03-31T01:07:06.506Z,93.30
2019-03-31T01:09:37.536Z,93.30
2019-03-31T01:12:06.105Z,93.20
2019-03-31T01:14:34.770Z,93.40
2019-03-31T01:17:22.706Z,93.50
2019-03-31T01:19:53.094Z,93.60
2019-03-31T01:22:40.869Z,93.30
2019-03-31T01:25:09.458Z,93.10
2019-03-31T01:27:38.127Z,93.10
2019-03-31T01:30:09.897Z,93.20
2019-03-31T01:32:38.466Z,93.40
2019-03-31T01:35:09.706Z,93.20
2019-03-31T01:37:38.169Z,93.10
2019-03-31T01:40:07.652Z,93.70
2019-03-31T01:42:36.093Z,93.60
2019-03-31T01:45:07.062Z,93.50
2019-03-31T01:47:35.498Z,93.30
2019-03-31T01:50:05.714Z,93.00
2019-03-31T01:52:34.160Z,93.00
2019-03-31T01:55:02.578Z,93.00
2019-03-31T01:57:31.052Z,92.80
2019-03-31T01:59:59.473Z,92.70
2019-03-31T02:02:29.980Z,92.70
2019-03-31T02:04:58.562Z,92.50
2019-03-31T02:07:27.013Z,92.20
2019-03-31T02:09:55.501Z,92.40
2019-03-31T02:12:23.921Z,92.20
2019-03-31T02:14:52.369Z,92.20
2019-03-31T02:17:20.889Z,92.30
2019-03-31T02:19:49.340Z,92.50
2019-03-31T02:22:17.764Z,92.80
2019-03-31T02:24:46.206Z,92.60
2019-03-31T02:27:14.642Z,92.50
2019-03-31T02:29:43.076Z,92.40
2019-03-31T02:32:23.729Z,92.10
2019-03-31T02:34:41.686Z,92.20
2019-03-31T02:37:10.133Z,92.10
2019-03-31T02:39:38.582Z,91.90
2019-03-31T02:42:07.154Z,92.10
2019-03-31T02:44:35.614Z,92.30
2019-03-31T02:47:04.066Z,92.50
2019-03-31T02:49:32.505Z,92.70
2019-03-31T02:52:01.104Z,92.90
2019-03-31T02:54:29.763Z,93.00
2019-03-31T02:56:58.342Z,93.00
2019-03-31T02:59:27.936Z,93.00
2019-03-31T03:01:58.102Z,93.00
2019-03-31T03:04:28.994Z,93.00
2019-03-31T03:06:58.270Z,92.90
2019-03-31T03:09:28.830Z,92.80
2019-03-31T03:12:18.188Z,92.60
2019-03-31T03:14:49.856Z,92.60
2019-03-31T03:17:18.318Z,92.30
2019-03-31T03:19:46.762Z,92.60
2019-03-31T03:22:15.186Z,92.20
2019-03-31T03:24:43.670Z,92.30
2019-03-31T03:27:12.152Z,93.10
2019-03-31T03:29:40.622Z,93.80
2019-03-31T03:32:09.074Z,94.40
2019-03-31T03:34:37.517Z,94.60
2019-03-31T03:37:06.050Z,94.80
2019-03-31T03:39:34.542Z,95.20
2019-03-31T03:42:02.971Z,95.30
2019-03-31T03:44:31.487Z,95.30
2019-03-31T03:46:59.909Z,95.10
2019-03-31T03:49:28.353Z,95.20
2019-03-31T03:51:56.788Z,95.00
2019-03-31T03:54:31.201Z,94.80
2019-03-31T03:56:59.645Z,94.70
2019-03-31T03:59:47.500Z,94.80
2019-03-31T04:02:15.935Z,94.90
2019-03-31T04:04:44.383Z,94.70
2019-03-31T04:07:12.811Z,94.80
2019-03-31T04:09:41.242Z,95.00
2019-03-31T04:12:09.691Z,94.90
2019-03-31T04:14:38.123Z,94.80
2019-03-31T04:17:06.543Z,95.20
2019-03-31T04:19:35.084Z,95.40
2019-03-31T04:22:03.515Z,95.20
2019-03-31T04:24:33.671Z,95.30
2019-03-31T04:27:21.534Z,95.20
2019-03-31T04:29:49.959Z,95.10
2019-03-31T04:32:18.423Z,94.20
2019-03-31T04:34:46.919Z,94.00
2019-03-31T04:37:15.372Z,93.80
2019-03-31T04:39:43.811Z,93.40
2019-03-31T04:42:12.302Z,92.90
2019-03-31T04:44:40.758Z,92.80
2019-03-31T04:47:09.183Z,92.40
2019-03-31T04:49:37.646Z,92.40
2019-03-31T04:52:06.070Z,92.30
2019-03-31T04:54:53.845Z,92.10
2019-03-31T04:57:22.270Z,92.30
2019-03-31T04:59:50.713Z,92.40
2019-03-31T05:02:19.157Z,92.30
2019-03-31T05:04:47.593Z,92.10
2019-03-31T05:07:16.095Z,92.20
2019-03-31T05:09:46.055Z,92.10
2019-03-31T05:12:16.908Z,92.30
2019-03-31T05:14:44.722Z,92.20
2019-03-31T05:17:13.177Z,92.10
2019-03-31T05:19:41.621Z,92.20
2019-03-31T05:22:10.116Z,92.30
2019-03-31T05:24:38.556Z,92.30
2019-03-31T05:27:06.989Z,92.30
2019-03-31T05:29:35.443Z,92.10
2019-03-31T05:32:03.967Z,92.20
2019-03-31T05:34:32.494Z,92.30
2019-03-31T05:37:20.259Z,92.40
2019-03-31T05:39:48.721Z,92.10
2019-03-31T05:42:17.405Z,92.10
2019-03-31T05:44:45.854Z,91.50
2019-03-31T05:47:14.276Z,91.90
2019-03-31T05:49:43.952Z,91.60
2019-03-31T05:52:12.389Z,92.00
2019-03-31T05:54:40.823Z,91.60
2019-03-31T05:57:09.239Z,91.40
2019-03-31T05:59:37.692Z,91.60
2019-03-31T06:02:06.267Z,91.50
2019-03-31T06:04:34.709Z,91.30
2019-03-31T06:07:03.399Z,91.30
2019-03-31T06:09:31.853Z,91.30
2019-03-31T06:12:00.987Z,91.10
2019-03-31T06:14:29.415Z,91.00
2019-03-31T06:16:57.921Z,90.80
2019-03-31T06:19:26.377Z,90.80
2019-03-31T06:21:54.876Z,91.20
2019-03-31T06:24:23.409Z,91.30
2019-03-31T06:26:51.942Z,91.30
2019-03-31T06:29:20.482Z,91.00
2019-03-31T06:31:48.980Z,91.50
2019-03-31T06:34:17.394Z,91.20
2019-03-31T06:36:45.841Z,90.70
2019-03-31T06:39:15.881Z,91.10
2019-03-31T06:41:44.295Z,91.00
2019-03-31T06:44:12.734Z,90.80
2019-03-31T06:46:41.163Z,91.00
2019-03-31T06:49:09.584Z,91.10
2019-03-31T06:51:38.058Z,90.90
2019-03-31T06:54:06.556Z,90.70
2019-03-31T06:56:35.055Z,90.30
2019-03-31T06:59:03.583Z,89.30
2019-03-31T07:01:38.045Z,88.40
2019-03-31T07:04:06.473Z,87.70
2019-03-31T07:06:34.899Z,88.20
2019-03-31T07:09:05.050Z,89.80
2019-03-31T07:11:33.496Z,87.10
2019-03-31T07:14:01.933Z,88.50
2019-03-31T07:16:30.430Z,86.50
2019-03-31T07:18:58.870Z,87.90
2019-03-31T07:21:27.329Z,87.00
2019-03-31T07:23:55.750Z,87.50
2019-03-31T07:26:24.200Z,86.20
2019-03-31T07:28:52.628Z,85.10
2019-03-31T07:31:21.069Z,84.40
2019-03-31T07:33:49.532Z,83.60
2019-03-31T07:36:17.993Z,83.60
2019-03-31T07:38:46.516Z,83.30
2019-03-31T07:41:15.093Z,82.90
2019-03-31T07:43:43.781Z,82.70
2019-03-31T07:46:12.230Z,81.60
2019-03-31T07:48:40.665Z,80.90
2019-03-31T07:51:09.111Z,81.20
2019-03-31T07:53:37.544Z,81.20
2019-03-31T07:56:05.974Z,81.60
2019-03-31T07:58:34.397Z,80.90
2019-03-31T08:01:02.860Z,81.20
2019-03-31T08:03:31.282Z,79.50
2019-03-31T08:05:59.732Z,77.40
2019-03-31T08:08:28.282Z,77.20
2019-03-31T08:10:58.280Z,76.70
2019-03-31T08:13:26.720Z,73.40
2019-03-31T08:15:56.874Z,73.00
2019-03-31T08:18:25.407Z,72.10
2019-03-31T08:20:53.853Z,71.10
2019-03-31T08:23:22.274Z,70.40
2019-03-31T08:25:50.710Z,71.10
2019-03-31T08:28:19.155Z,71.60
2019-03-31T08:30:47.607Z,71.80
2019-03-31T08:33:16.113Z,71.60
2019-03-31T08:35:47.661Z,73.20
2019-03-31T08:38:14.720Z,72.20
2019-03-31T08:40:43.137Z,71.70
2019-03-31T08:43:11.606Z,71.30
2019-03-31T08:45:40.130Z,69.20
2019-03-31T08:48:08.636Z,70.60
2019-03-31T08:50:37.091Z,68.60
2019-03-31T08:53:08.336Z,67.50
2019-03-31T08:55:36.781Z,65.50
2019-03-31T08:58:08.645Z,66.20
2019-03-31T09:00:38.761Z,64.20
2019-03-31T09:03:07.191Z,64.40
2019-03-31T09:05:35.654Z,64.00
2019-03-31T09:08:04.092Z,64.20
2019-03-31T09:10:32.513Z,63.70
2019-03-31T09:13:00.968Z,64.00
2019-03-31T09:15:29.481Z,62.90
2019-03-31T09:17:57.934Z,60.80
2019-03-31T09:20:26.377Z,59.00
2019-03-31T09:22:54.824Z,59.20
2019-03-31T09:25:23.357Z,60.20
2019-03-31T09:27:51.797Z,60.60
2019-03-31T09:30:20.381Z,60.60
2019-03-31T09:32:48.812Z,60.90
2019-03-31T09:35:20.770Z,60.20
2019-03-31T09:37:57.163Z,58.80
2019-03-31T09:40:25.579Z,56.50
2019-03-31T09:42:54.918Z,58.70
2019-03-31T09:45:23.342Z,59.80
2019-03-31T09:47:51.785Z,58.60
2019-03-31T09:50:20.758Z,58.00
2019-03-31T09:52:49.211Z,57.10
2019-03-31T09:55:17.660Z,58.40
2019-03-31T09:57:46.117Z,58.70
2019-03-31T10:00:34.055Z,58.80
2019-03-31T10:03:06.671Z,59.80
2019-03-31T10:05:35.087Z,60.00
2019-03-31T10:08:03.545Z,59.70
2019-03-31T10:10:33.077Z,60.70
2019-03-31T10:13:01.896Z,60.10
2019-03-31T10:15:30.471Z,60.00
2019-03-31T10:17:58.902Z,61.70
2019-03-31T10:20:31.104Z,60.00
2019-03-31T10:22:58.057Z,60.20
2019-03-31T10:25:27.841Z,62.50
2019-03-31T10:27:56.746Z,59.20
2019-03-31T10:30:52.122Z,60.50
2019-03-31T10:33:20.588Z,56.30
2019-03-31T10:35:49.046Z,56.20
2019-03-31T10:38:17.523Z,56.50
2019-03-31T10:40:45.978Z,57.40
2019-03-31T10:43:17.375Z,57.70
2019-03-31T10:45:45.865Z,58.00
2019-03-31T10:48:20.934Z,57.50
2019-03-31T10:50:44.479Z,55.60
2019-03-31T10:53:12.965Z,55.10
2019-03-31T10:55:41.420Z,55.70
2019-03-31T10:58:09.838Z,56.00
2019-03-31T11:00:38.849Z,55.30
2019-03-31T11:03:07.943Z,57.00
2019-03-31T11:05:36.595Z,54.40
2019-03-31T11:08:06.004Z,55.50
2019-03-31T11:10:34.837Z,55.20
2019-03-31T11:13:03.355Z,54.50
2019-03-31T11:15:31.882Z,55.30
2019-03-31T11:18:00.322Z,55.10
2019-03-31T11:20:28.823Z,56.20
2019-03-31T11:23:02.025Z,55.80
2019-03-31T11:25:30.458Z,54.80
2019-03-31T11:27:58.882Z,54.90
2019-03-31T11:30:27.318Z,54.30
2019-03-31T11:32:55.758Z,54.80
2019-03-31T11:35:24.242Z,54.20
2019-03-31T11:37:52.692Z,53.20
2019-03-31T11:40:22.090Z,52.40
2019-03-31T11:42:50.541Z,54.40
2019-03-31T11:45:18.975Z,52.60
2019-03-31T11:47:47.424Z,53.10
2019-03-31T11:50:16.201Z,53.30
2019-03-31T11:52:44.642Z,52.90
2019-03-31T11:55:13.073Z,52.70
2019-03-31T11:57:41.516Z,54.60
2019-03-31T12:00:12.540Z,52.90
2019-03-31T12:02:40.963Z,53.70
2019-03-31T12:05:09.526Z,53.10
2019-03-31T12:07:46.788Z,52.00
2019-03-31T12:10:10.754Z,51.90
2019-03-31T12:12:39.182Z,52.80
2019-03-31T12:15:10.237Z,53.00
2019-03-31T12:17:39.769Z,53.40
2019-03-31T12:20:11.114Z,54.00
2019-03-31T12:22:39.533Z,52.90
2019-03-31T12:25:08.770Z,51.20
2019-03-31T12:27:37.295Z,49.40
2019-03-31T12:30:08.050Z,50.00
2019-03-31T12:32:38.555Z,49.90
2019-03-31T12:35:08.141Z,52.20
2019-03-31T12:37:42.880Z,51.10
2019-03-31T12:40:07.713Z,52.90
2019-03-31T12:42:36.156Z,50.10
2019-03-31T12:45:05.520Z,50.60
2019-03-31T12:47:33.977Z,50.80
2019-03-31T12:50:02.417Z,48.40
2019-03-31T12:52:30.854Z,50.30
2019-03-31T12:54:59.296Z,49.60
2019-03-31T12:57:27.734Z,50.80
2019-03-31T12:59:56.174Z,52.00
2019-03-31T13:02:24.601Z,52.10
2019-03-31T13:04:53.022Z,51.70
2019-03-31T13:07:21.481Z,49.90
2019-03-31T13:09:49.925Z,49.50
2019-03-31T13:12:18.376Z,48.80
2019-03-31T13:14:46.889Z,49.50
2019-03-31T13:17:15.315Z,48.60
2019-03-31T13:19:43.737Z,48.00
2019-03-31T13:22:12.204Z,50.10
2019-03-31T13:24:40.699Z,50.10
2019-03-31T13:27:09.234Z,48.50
2019-03-31T13:29:38.496Z,48.40
2019-03-31T13:32:07.706Z,49.20
2019-03-31T13:34:36.169Z,48.20
2019-03-31T13:37:04.610Z,48.70
2019-03-31T13:39:33.045Z,50.00
2019-03-31T13:42:01.482Z,48.10
2019-03-31T13:44:29.933Z,48.90
2019-03-31T13:46:58.388Z,46.70
2019-03-31T13:49:26.840Z,47.90
2019-03-31T13:51:55.264Z,44.70
2019-03-31T13:54:23.694Z,45.00
2019-03-31T13:56:52.664Z,45.10
2019-03-31T13:59:21.341Z,43.00
2019-03-31T14:01:49.781Z,42.80
2019-03-31T14:04:18.782Z,44.60
2019-03-31T14:06:47.218Z,44.40
2019-03-31T14:09:15.657Z,45.30
2019-03-31T14:11:44.142Z,44.10
2019-03-31T14:14:12.610Z,45.50
2019-03-31T14:16:41.059Z,43.20
2019-03-31T14:19:12.866Z,42.70
2019-03-31T14:21:40.221Z,43.10
2019-03-31T14:24:08.782Z,42.60
2019-03-31T14:26:37.214Z,42.80
2019-03-31T14:29:05.667Z,41.20
2019-03-31T14:31:36.520Z,42.40
2019-03-31T14:34:07.333Z,42.00
2019-03-31T14:36:35.778Z,42.70
2019-03-31T14:39:25.104Z,42.80
2019-03-31T14:41:53.577Z,41.80
2019-03-31T14:44:22.047Z,43.60
2019-03-31T14:46:50.463Z,41.00
2019-03-31T14:49:18.886Z,40.10
2019-03-31T14:51:47.345Z,40.90
2019-03-31T14:54:15.753Z,44.60
2019-03-31T14:56:44.207Z,43.30
2019-03-31T14:59:12.641Z,41.50
2019-03-31T15:01:41.063Z,42.00
2019-03-31T15:04:09.517Z,42.50
2019-03-31T15:06:37.941Z,43.50
2019-03-31T15:09:08.333Z,42.00
2019-03-31T15:11:36.793Z,41.70
2019-03-31T15:14:05.226Z,42.70
2019-03-31T15:16:33.650Z,43.80
2019-03-31T15:19:02.100Z,42.90
2019-03-31T15:21:30.661Z,43.20
2019-03-31T15:23:59.112Z,43.90
2019-03-31T15:26:27.569Z,44.10
2019-03-31T15:28:56.053Z,43.40
2019-03-31T15:31:24.492Z,43.20
2019-03-31T15:33:53.000Z,42.20
2019-03-31T15:36:21.443Z,41.90
2019-03-31T15:38:49.868Z,43.30
2019-03-31T15:41:37.643Z,42.80
2019-03-31T15:44:06.063Z,42.60
2019-03-31T15:46:34.579Z,42.80
2019-03-31T15:49:03.005Z,42.30
2019-03-31T15:51:31.544Z,44.10
2019-03-31T15:54:00.105Z,42.20
2019-03-31T15:56:34.408Z,43.60
2019-03-31T15:59:02.832Z,42.40
2019-03-31T16:01:31.275Z,45.40
2019-03-31T16:03:59.716Z,43.70
2019-03-31T16:06:47.517Z,43.60
2019-03-31T16:09:23.196Z,43.70
2019-03-31T16:11:53.562Z,45.10
2019-03-31T16:14:16.352Z,44.60
2019-03-31T16:16:44.788Z,45.40
2019-03-31T16:19:13.242Z,44.10
2019-03-31T16:21:44.207Z,44.20
2019-03-31T16:24:11.834Z,46.40
2019-03-31T16:26:40.280Z,46.60
2019-03-31T16:29:08.710Z,42.40
2019-03-31T16:31:37.139Z,43.40
2019-03-31T16:34:05.584Z,44.80
2019-03-31T16:36:34.032Z,46.30
2019-03-31T16:39:02.464Z,43.20
2019-03-31T16:41:30.929Z,43.70
2019-03-31T16:43:59.358Z,46.90
2019-03-31T16:46:27.874Z,44.20
2019-03-31T16:48:56.371Z,42.60
2019-03-31T16:51:24.816Z,47.00
2019-03-31T16:53:53.290Z,45.20
2019-03-31T16:56:21.704Z,45.50
2019-03-31T16:58:50.135Z,43.00
2019-03-31T17:01:18.562Z,43.50
2019-03-31T17:03:47.005Z,44.10
2019-03-31T17:06:15.429Z,44.40
2019-03-31T17:11:26.438Z,45.50
2019-03-31T17:13:54.858Z,45.60
2019-03-31T17:16:23.294Z,46.70
2019-03-31T17:18:51.810Z,47.00
2019-03-31T17:21:20.334Z,45.60
2019-03-31T17:23:48.813Z,47.00
2019-03-31T17:26:17.413Z,47.10
2019-03-31T17:28:48.136Z,47.70
2019-03-31T17:31:16.647Z,49.30
2019-03-31T17:33:45.116Z,50.10
2019-03-31T17:36:13.805Z,48.00
2019-03-31T17:38:42.249Z,48.00
2019-03-31T17:41:10.774Z,47.60
2019-03-31T17:43:39.227Z,49.30
2019-03-31T17:46:07.660Z,49.60
2019-03-31T17:48:36.105Z,49.00
2019-03-31T17:51:04.625Z,49.80
2019-03-31T17:53:33.050Z,51.00
2019-03-31T17:56:02.587Z,52.30
2019-03-31T17:58:31.214Z,52.50
2019-03-31T18:00:59.722Z,51.20
2019-03-31T18:03:28.153Z,50.20
2019-03-31T18:05:56.591Z,51.40
2019-03-31T18:08:25.087Z,52.60
2019-03-31T18:10:53.517Z,54.10
2019-03-31T18:13:21.977Z,52.50
2019-03-31T18:15:50.535Z,55.70
2019-03-31T18:18:19.047Z,57.70
2019-03-31T18:20:47.505Z,52.60
2019-03-31T18:23:16.019Z,54.60
2019-03-31T18:25:44.700Z,54.00
2019-03-31T18:28:13.217Z,54.20
2019-03-31T18:30:41.686Z,55.20
2019-03-31T18:33:12.978Z,54.60
2019-03-31T18:35:41.440Z,55.70
2019-03-31T18:38:09.949Z,55.40
2019-03-31T18:40:57.719Z,53.80
2019-03-31T18:43:26.185Z,56.50
2019-03-31T18:45:54.605Z,54.80
2019-03-31T18:48:23.036Z,56.00
2019-03-31T18:50:51.457Z,57.60
2019-03-31T18:53:21.548Z,56.00
2019-03-31T18:56:09.753Z,57.40
2019-03-31T18:58:42.806Z,61.10
2019-03-31T19:01:12.896Z,61.30
2019-03-31T19:03:53.089Z,67.40
2019-03-31T19:06:31.994Z,60.60
2019-03-31T19:09:05.061Z,60.80
2019-03-31T19:11:37.608Z,59.80
2019-03-31T19:14:15.970Z,58.40
2019-03-31T19:16:58.234Z,67.10
2019-03-31T19:19:37.004Z,59.20
2019-03-31T19:22:19.206Z,58.40
2019-03-31T19:25:01.466Z,60.90
2019-03-31T19:27:40.461Z,59.40
2019-03-31T19:30:18.467Z,59.00
2019-03-31T19:32:54.419Z,56.80
2019-03-31T19:38:36.163Z,58.80
2019-03-31T19:41:06.301Z,58.70
2019-03-31T19:43:36.383Z,58.90
2019-03-31T19:46:09.234Z,60.30
2019-03-31T19:48:39.379Z,63.30
2019-03-31T19:51:18.510Z,61.90
2019-03-31T19:54:06.533Z,61.30
2019-03-31T19:59:50.497Z,65.00
2019-03-31T20:02:25.272Z,59.60
2019-03-31T20:05:00.593Z,60.70
2019-03-31T20:07:45.732Z,65.10
2019-03-31T20:10:15.814Z,62.90
2019-03-31T20:15:30.072Z,62.50
2019-03-31T20:18:00.137Z,63.10
2019-03-31T20:20:30.201Z,62.10
2019-03-31T20:23:09.483Z,62.30
2019-03-31T20:25:39.586Z,63.90
2019-03-31T20:28:09.668Z,64.40
2019-03-31T20:30:45.265Z,63.80
2019-03-31T20:33:24.362Z,62.10
2019-03-31T20:36:06.305Z,64.40
2019-03-31T20:38:36.417Z,62.90
2019-03-31T20:41:12.318Z,65.30
2019-03-31T20:43:45.102Z,64.90
2019-03-31T20:46:13.572Z,68.90
2019-03-31T20:48:42.070Z,62.90
2019-03-31T20:51:10.489Z,64.70
2019-03-31T20:53:38.941Z,64.40
2019-03-31T20:56:07.491Z,64.40
2019-03-31T20:58:37.677Z,65.70
2019-03-31T21:01:09.838Z,65.50
2019-03-31T21:03:36.259Z,66.50
2019-03-31T21:06:04.834Z,67.00
2019-03-31T21:11:15.529Z,66.60
2019-03-31T21:13:43.975Z,65.80
2019-03-31T21:16:12.424Z,68.80
2019-03-31T21:18:40.919Z,69.10
2019-03-31T21:21:09.434Z,66.90
2019-03-31T21:23:37.869Z,67.00
2019-03-31T21:26:06.304Z,69.30
2019-03-31T21:28:34.755Z,69.20
2019-03-31T21:31:03.193Z,68.70
2019-03-31T21:33:31.629Z,68.50
2019-03-31T21:36:00.073Z,67.40
2019-03-31T21:38:28.531Z,69.60
2019-03-31T21:40:56.986Z,72.00
2019-03-31T21:43:25.402Z,67.20
2019-03-31T21:45:53.870Z,69.00
2019-03-31T21:48:22.546Z,69.60
2019-03-31T21:50:51.049Z,69.60
2019-03-31T21:53:19.470Z,69.00
2019-03-31T21:55:47.890Z,69.00
2019-03-31T21:58:16.365Z,69.40
2019-03-31T22:00:51.736Z,70.60
2019-03-31T22:03:20.465Z,71.40
2019-03-31T22:05:48.897Z,70.70
2019-03-31T22:08:17.303Z,69.70
2019-03-31T22:10:45.734Z,68.80
2019-03-31T22:13:14.171Z,71.10
2019-03-31T22:15:42.600Z,70.70
2019-03-31T22:18:11.016Z,70.00
2019-03-31T22:20:39.532Z,70.00
2019-03-31T22:23:07.969Z,69.60
2019-03-31T22:25:36.676Z,72.00
2019-03-31T22:28:05.188Z,71.90
2019-03-31T22:30:35.247Z,70.90
2019-03-31T22:33:04.445Z,70.80
2019-03-31T22:35:32.946Z,68.60
2019-03-31T22:38:02.514Z,72.60
2019-03-31T22:40:31.233Z,72.20
2019-03-31T22:42:59.654Z,70.50
2019-03-31T22:45:28.141Z,73.40
2019-03-31T22:47:56.618Z,72.20
2019-03-31T22:50:25.185Z,75.10
2019-03-31T22:52:53.631Z,74.20
2019-03-31T22:55:22.122Z,71.60
2019-03-31T22:57:50.568Z,71.60
2019-03-31T23:00:20.791Z,71.40
2019-03-31T23:02:49.229Z,70.50
2019-03-31T23:05:17.666Z,70.20
2019-03-31T23:07:46.104Z,72.00
2019-03-31T23:10:14.621Z,73.40
2019-03-31T23:12:43.110Z,72.50
2019-03-31T23:15:11.696Z,73.00
2019-03-31T23:17:40.289Z,73.10
2019-03-31T23:20:08.894Z,72.20
2019-03-31T23:22:37.335Z,75.10
2019-03-31T23:25:06.396Z,75.70
2019-03-31T23:27:34.818Z,74.70
2019-03-31T23:30:06.142Z,75.30
2019-03-31T23:32:34.562Z,75.80
2019-03-31T23:35:02.994Z,74.70
2019-03-31T23:37:31.417Z,73.70
2019-03-31T23:39:59.865Z,72.20
2019-03-31T23:42:28.295Z,73.70
2019-03-31T23:44:56.733Z,74.10
2019-03-31T23:47:25.151Z,74.20
2019-03-31T23:49:53.582Z,74.40
2019-03-31T23:52:21.998Z,74.50
2019-03-31T23:54:50.442Z,75.30
2019-03-31T23:57:20.523Z,74.70
2019-03-31T23:59:48.973Z,74.90
